North Salem, New Hampshire
Current Conditions -  °F | °C
As of 12:54 AM on Saturday 29 Nov 2014 (Local Time) from KLWM Reporting Station
Clear Clear  
Wind Chill: 13°   Ceiling: Unl
Heat Index: 22°   Visibility: 10mi
Dew Point: 13°   Wind: 7mph
Humidity: 68%   Direction: 290°WNW
Pressure: 30.23"   Gusts: NA
Location:  42.84°N, 71.22°W
Report Text: KLWM 290554Z 29006KT 10SM CLR M06/M11 A3023 RMK AO2 SLP239 T10561106 11028 21067 51011
Loading
Personal Weather Stations






























Interactive Weather Map New forecast layout! Learn more

10-Day Weather Forecast

Advertisements
Track Severe Weather on mobile